createdAt,value
2022-12-27T00:04:08.033Z,186.52
2022-12-27T00:09:12.031Z,213.10
2022-12-27T00:14:17.317Z,180.50
2022-12-27T00:19:21.357Z,211.27
2022-12-27T00:24:25.221Z,218.77
2022-12-27T00:29:30.490Z,203.90
2022-12-27T00:34:34.686Z,216.40
2022-12-27T00:39:38.624Z,204.82
2022-12-27T00:44:43.909Z,213.82
2022-12-27T00:49:47.771Z,210.82
2022-12-27T00:54:51.614Z,216.37
2022-12-27T00:59:56.897Z,216.00
2022-12-27T01:05:00.747Z,36.17
2022-12-27T01:10:05.120Z,209.55
2022-12-27T01:15:11.671Z,216.02
2022-12-27T01:20:15.584Z,206.13
2022-12-27T01:25:19.634Z,208.20
2022-12-27T01:30:25.707Z,210.20
2022-12-27T01:35:29.581Z,25.55
2022-12-27T01:40:33.418Z,219.23
2022-12-27T01:45:39.071Z,237.88
2022-12-27T01:50:45.697Z,218.88
2022-12-27T01:55:51.906Z,223.50
2022-12-27T02:00:58.265Z,225.00
2022-12-27T02:06:04.242Z,230.77
2022-12-27T02:11:09.587Z,231.80
2022-12-27T02:16:16.733Z,234.32
2022-12-27T02:21:44.286Z,233.75
2022-12-27T02:26:52.087Z,234.20
2022-12-27T02:32:02.059Z,222.73
2022-12-27T02:37:09.459Z,234.02
2022-12-27T02:42:31.580Z,231.43
2022-12-27T02:47:54.604Z,233.05
2022-12-27T02:53:08.126Z,232.82
2022-12-27T02:58:23.229Z,222.98
2022-12-27T03:03:44.650Z,216.18
2022-12-27T03:08:56.378Z,234.55
2022-12-27T03:14:24.017Z,241.82
2022-12-27T03:19:44.451Z,233.55
2022-12-27T03:25:06.076Z,231.10
2022-12-27T03:30:28.203Z,217.30
2022-12-27T03:35:36.005Z,230.98
2022-12-27T03:41:03.229Z,229.68
2022-12-27T03:46:31.926Z,230.07
2022-12-27T03:51:39.822Z,229.40
2022-12-27T03:56:43.841Z,235.70
2022-12-27T04:01:47.743Z,228.02
2022-12-27T04:06:53.137Z,228.35
2022-12-27T04:12:14.799Z,217.95
2022-12-27T04:17:36.118Z,211.77
2022-12-27T04:22:58.720Z,221.68
2022-12-27T04:28:20.281Z,225.82
2022-12-27T04:33:41.484Z,215.10
2022-12-27T04:38:46.765Z,211.15
2022-12-27T04:44:08.119Z,209.50
2022-12-27T04:49:33.057Z,212.57
2022-12-27T04:54:56.765Z,203.73
2022-12-27T05:00:17.956Z,206.13
2022-12-27T05:05:22.338Z,195.45
2022-12-27T05:10:44.973Z,224.20
2022-12-27T05:15:50.078Z,216.02
2022-12-27T05:20:53.951Z,211.57
2022-12-27T05:25:59.158Z,222.05
2022-12-27T05:31:03.795Z,18.33
2022-12-27T05:36:09.002Z,216.93
2022-12-27T05:41:14.683Z,195.10
2022-12-27T05:46:20.957Z,201.38
2022-12-27T05:51:24.891Z,212.57
2022-12-27T05:56:30.830Z,197.43
2022-12-27T06:01:34.969Z,198.55
2022-12-27T06:06:38.926Z,214.18
2022-12-27T06:11:44.182Z,213.35
2022-12-27T06:16:48.156Z,118.00
2022-12-27T06:21:52.113Z,210.18
2022-12-27T06:26:57.335Z,209.38
2022-12-27T06:32:01.210Z,196.50
2022-12-27T06:37:05.169Z,214.82
2022-12-27T06:42:10.411Z,208.23
2022-12-27T06:47:14.256Z,203.02
2022-12-27T06:52:18.127Z,190.73
2022-12-27T06:57:23.385Z,201.52
2022-12-27T07:02:27.351Z,78.72
2022-12-27T07:07:31.274Z,178.35
2022-12-27T07:12:37.412Z,175.75
2022-12-27T07:17:41.293Z,167.90
2022-12-27T07:22:45.431Z,154.20
2022-12-27T07:27:50.679Z,146.23
2022-12-27T07:32:54.540Z,131.63
2022-12-27T07:37:58.365Z,153.77
2022-12-27T07:43:03.632Z,150.60
2022-12-27T07:48:07.963Z,141.25
2022-12-27T07:53:11.855Z,145.90
2022-12-27T07:58:17.123Z,138.48
2022-12-27T08:03:21.093Z,136.48
2022-12-27T08:08:27.140Z,133.75
2022-12-27T08:13:32.423Z,132.13
2022-12-27T08:18:36.247Z,118.43
2022-12-27T08:23:40.142Z,107.90
2022-12-27T08:28:45.435Z,106.72
2022-12-27T08:33:53.614Z,124.88
2022-12-27T08:39:00.568Z,118.45
2022-12-27T08:44:05.929Z,117.82
2022-12-27T08:49:09.822Z,63.13
2022-12-27T08:54:13.690Z,118.35
2022-12-27T08:59:19.044Z,124.85
2022-12-27T09:04:23.098Z,124.65
2022-12-27T09:09:26.980Z,118.40
2022-12-27T09:14:32.251Z,132.63
2022-12-27T09:19:36.241Z,113.38
2022-12-27T09:24:40.052Z,118.15
2022-12-27T09:29:48.394Z,117.30
2022-12-27T09:34:52.561Z,110.60
2022-12-27T09:39:57.104Z,107.10
2022-12-27T09:45:08.903Z,104.60
2022-12-27T09:50:14.978Z,99.18
2022-12-27T09:55:22.167Z,92.75
2022-12-27T10:00:34.839Z,87.07
2022-12-27T10:05:40.719Z,42.88
2022-12-27T10:10:47.550Z,26.37
2022-12-27T10:16:00.851Z,25.42
2022-12-27T10:21:14.932Z,26.08
2022-12-27T10:26:20.379Z,26.65
2022-12-27T10:31:26.351Z,31.90
2022-12-27T10:36:32.123Z,25.13
2022-12-27T10:41:45.192Z,25.50
2022-12-27T10:46:53.795Z,25.23
2022-12-27T10:51:59.591Z,21.88
2022-12-27T10:57:18.463Z,26.13
2022-12-27T11:02:24.008Z,30.88
2022-12-27T11:07:31.403Z,27.58
2022-12-27T11:12:36.323Z,26.20
2022-12-27T11:17:43.727Z,28.05
2022-12-27T11:22:49.949Z,24.15
2022-12-27T11:27:56.188Z,32.88
2022-12-27T11:33:05.026Z,25.58
2022-12-27T11:38:18.318Z,27.48
2022-12-27T11:43:27.619Z,22.50
2022-12-27T11:48:37.122Z,27.27
2022-12-27T11:54:06.156Z,20.80
2022-12-27T11:59:25.455Z,29.30
2022-12-27T12:04:59.095Z,26.40
2022-12-27T12:10:12.641Z,28.52
2022-12-27T12:15:38.219Z,21.63
2022-12-27T12:21:04.913Z,33.45
2022-12-27T12:26:15.395Z,21.83
2022-12-27T12:31:29.220Z,20.17
2022-12-27T12:36:52.120Z,24.58
2022-12-27T12:42:18.722Z,27.52
2022-12-27T12:47:47.333Z,20.95
2022-12-27T12:53:17.218Z,25.02
2022-12-27T12:58:34.485Z,25.10
2022-12-27T13:03:58.404Z,18.58
2022-12-27T13:09:10.229Z,26.65
2022-12-27T13:14:29.445Z,22.52
2022-12-27T13:19:53.794Z,33.58
2022-12-27T13:25:11.548Z,20.33
2022-12-27T13:30:20.463Z,27.83
2022-12-27T13:35:32.945Z,28.67
2022-12-27T13:40:51.460Z,21.60
2022-12-27T13:46:13.824Z,30.50
2022-12-27T13:51:38.811Z,19.73
2022-12-27T13:56:54.742Z,33.97
2022-12-27T14:02:26.862Z,29.67
2022-12-27T14:07:47.580Z,27.75
2022-12-27T14:13:03.737Z,31.30
2022-12-27T14:18:23.975Z,28.67
2022-12-27T14:24:00.489Z,33.45
2022-12-27T14:29:37.826Z,25.48
2022-12-27T14:35:02.450Z,36.28
2022-12-27T14:40:36.942Z,26.83
2022-12-27T14:46:11.865Z,28.17
2022-12-27T14:52:08.585Z,40.72
2022-12-27T14:57:27.485Z,37.83
2022-12-27T15:02:48.823Z,35.47
2022-12-27T15:08:17.227Z,46.30
2022-12-27T15:13:26.293Z,40.63
2022-12-27T15:18:51.773Z,45.25
2022-12-27T15:23:56.856Z,34.23
2022-12-27T15:29:10.743Z,51.53
2022-12-27T15:34:35.161Z,53.50
2022-12-27T15:39:53.908Z,56.35
2022-12-27T15:45:02.943Z,67.55
2022-12-27T15:50:30.896Z,73.93
2022-12-27T15:55:55.587Z,88.85
2022-12-27T16:01:26.180Z,95.70
2022-12-27T16:06:51.260Z,116.43
2022-12-27T16:12:01.355Z,116.50
2022-12-27T16:17:26.311Z,129.73
2022-12-27T16:22:38.028Z,132.82
2022-12-27T16:27:42.142Z,130.75
2022-12-27T16:32:49.829Z,122.55
2022-12-27T16:37:57.192Z,123.50
2022-12-27T16:43:25.990Z,120.72
2022-12-27T16:48:38.161Z,110.65
2022-12-27T16:53:57.367Z,109.28
2022-12-27T16:59:01.581Z,106.10
2022-12-27T17:04:05.832Z,102.43
2022-12-27T17:09:45.562Z,90.20
2022-12-27T17:14:50.320Z,61.28
2022-12-27T17:20:01.005Z,68.20
2022-12-27T17:25:06.933Z,51.40
2022-12-27T17:35:28.704Z,21.98
2022-12-27T17:40:38.571Z,29.70
2022-12-27T17:45:47.342Z,32.03
2022-12-27T17:50:54.639Z,26.52
2022-12-27T17:56:30.285Z,34.03
2022-12-27T18:01:35.791Z,25.10
2022-12-27T18:06:39.918Z,25.00
2022-12-27T18:11:45.218Z,31.20
2022-12-27T18:16:49.160Z,25.17
2022-12-27T18:21:57.223Z,23.30
2022-12-27T18:27:04.412Z,21.58
2022-12-27T18:32:10.698Z,16.08
2022-12-27T18:37:18.114Z,13.02
2022-12-27T18:42:26.359Z,16.85
2022-12-27T18:47:30.269Z,16.30
2022-12-27T18:52:35.873Z,16.65
2022-12-27T18:57:41.772Z,15.75
2022-12-27T19:07:51.128Z,11.13
2022-12-27T19:12:57.011Z,9.57
2022-12-27T19:23:08.806Z,11.13
2022-12-27T19:28:25.864Z,11.40
2022-12-27T19:33:31.002Z,12.57
2022-12-27T19:38:34.994Z,15.83
2022-12-27T19:43:42.318Z,10.77
2022-12-27T19:49:01.151Z,10.30
2022-12-27T19:54:14.846Z,7.35
2022-12-27T19:59:21.723Z,11.02
2022-12-27T20:04:25.605Z,8.15
2022-12-27T20:09:29.499Z,9.23
2022-12-27T20:14:34.776Z,10.73
2022-12-27T20:19:38.694Z,7.97
2022-12-27T20:24:42.571Z,9.40
2022-12-27T20:29:47.821Z,6.25
2022-12-27T20:34:51.648Z,7.40
2022-12-27T20:39:55.500Z,9.82
2022-12-27T20:45:00.879Z,6.53
2022-12-27T20:50:05.080Z,9.00
2022-12-27T20:55:10.226Z,10.50
2022-12-27T21:00:16.821Z,6.33
2022-12-27T21:05:20.757Z,6.57
2022-12-27T21:10:24.624Z,10.68
2022-12-27T21:15:31.293Z,9.82
2022-12-27T21:20:35.328Z,11.57
2022-12-27T21:25:39.159Z,9.60
2022-12-27T21:30:44.388Z,12.88
2022-12-27T21:35:56.494Z,11.47
2022-12-27T21:41:01.346Z,13.65
2022-12-27T21:46:09.619Z,10.30
2022-12-27T21:51:15.058Z,13.60
2022-12-27T21:56:19.398Z,18.55
2022-12-27T22:01:26.127Z,9.70
2022-12-27T22:06:31.636Z,21.63
2022-12-27T22:11:36.356Z,22.33
2022-12-27T22:16:41.782Z,21.42
2022-12-27T22:21:45.606Z,24.00
2022-12-27T22:26:50.463Z,22.75
2022-12-27T22:31:55.857Z,20.42
2022-12-27T22:36:59.734Z,18.87
2022-12-27T22:42:03.584Z,27.50
2022-12-27T22:47:26.361Z,38.03
2022-12-27T22:52:31.379Z,41.38
2022-12-27T22:57:35.596Z,41.83
2022-12-27T23:02:40.981Z,43.47
2022-12-27T23:08:06.205Z,44.92
2022-12-27T23:13:08.720Z,49.97
2022-12-27T23:18:13.984Z,50.67
2022-12-27T23:23:17.947Z,50.57
2022-12-27T23:28:21.828Z,54.67
2022-12-27T23:33:27.092Z,53.05
2022-12-27T23:38:30.944Z,47.33
2022-12-27T23:43:53.780Z,21.00
2022-12-27T23:49:02.896Z,8.40
2022-12-27T23:54:06.869Z,8.10
2022-12-27T23:59:10.720Z,9.40
